createdAt,value
2019-02-11T00:02:12.493Z,0.80
2019-02-11T00:04:40.837Z,0.80
2019-02-11T00:07:09.418Z,0.70
2019-02-11T00:09:37.715Z,1.27
2019-02-11T00:12:06.033Z,0.83
2019-02-11T00:14:34.374Z,0.83
2019-02-11T00:17:02.684Z,0.70
2019-02-11T00:19:31.024Z,0.60
2019-02-11T00:21:59.333Z,0.60
2019-02-11T00:24:28.716Z,0.73
2019-02-11T00:26:57.051Z,1.00
2019-02-11T00:29:25.381Z,0.90
2019-02-11T00:31:53.773Z,0.70
2019-02-11T00:34:22.109Z,0.70
2019-02-11T00:36:50.430Z,0.67
2019-02-11T00:39:18.745Z,1.80
2019-02-11T00:41:47.125Z,0.90
2019-02-11T00:44:15.436Z,1.47
2019-02-11T00:46:43.785Z,0.90
2019-02-11T00:49:12.286Z,1.00
2019-02-11T00:51:40.666Z,0.63
2019-02-11T00:54:08.990Z,0.73
2019-02-11T00:56:37.320Z,1.00
2019-02-11T00:59:05.632Z,0.70
2019-02-11T01:01:33.977Z,0.60
2019-02-11T01:04:02.359Z,0.70
2019-02-11T01:06:30.730Z,0.60
2019-02-11T01:09:00.075Z,0.60
2019-02-11T01:11:28.446Z,0.73
2019-02-11T01:13:56.769Z,0.70
2019-02-11T01:16:25.158Z,0.60
2019-02-11T01:18:53.470Z,0.60
2019-02-11T01:21:21.795Z,2.93
2019-02-11T01:23:50.181Z,0.60
2019-02-11T01:26:18.473Z,0.70
2019-02-11T01:28:46.818Z,0.60
2019-02-11T01:31:15.126Z,0.70
2019-02-11T01:33:43.473Z,0.60
2019-02-11T01:36:12.350Z,0.60
2019-02-11T01:38:40.691Z,0.60
2019-02-11T01:41:09.164Z,0.60
2019-02-11T01:43:37.485Z,1.47
2019-02-11T01:46:05.870Z,0.67
2019-02-11T01:48:34.201Z,0.60
2019-02-11T01:51:02.528Z,0.60
2019-02-11T01:53:30.857Z,0.60
2019-02-11T01:55:59.173Z,0.60
2019-02-11T01:58:27.619Z,0.60
2019-02-11T02:00:55.936Z,0.60
2019-02-11T02:03:24.248Z,0.70
2019-02-11T02:05:52.559Z,0.63
2019-02-11T02:08:20.892Z,0.60
2019-02-11T02:10:49.200Z,0.60
2019-02-11T02:13:17.583Z,0.60
2019-02-11T02:15:45.877Z,0.60
2019-02-11T02:18:14.206Z,0.70
2019-02-11T02:20:42.543Z,0.65
2019-02-11T02:23:11.474Z,0.70
2019-02-11T02:25:39.807Z,0.60
2019-02-11T02:28:08.085Z,0.77
2019-02-11T02:30:36.416Z,0.70
2019-02-11T02:33:04.805Z,0.70
2019-02-11T02:35:33.218Z,0.70
2019-02-11T02:38:01.617Z,0.60
2019-02-11T02:40:29.966Z,0.60
2019-02-11T02:42:58.276Z,0.60
2019-02-11T02:45:26.619Z,0.70
2019-02-11T02:47:54.909Z,0.55
2019-02-11T02:50:23.238Z,0.60
2019-02-11T02:52:51.527Z,1.43
2019-02-11T02:55:19.857Z,0.60
2019-02-11T02:57:48.173Z,0.60
2019-02-11T03:00:16.584Z,1.07
2019-02-11T03:02:44.909Z,0.60
2019-02-11T03:05:13.788Z,0.60
2019-02-11T03:07:42.112Z,0.70
2019-02-11T03:10:11.538Z,0.67
2019-02-11T03:12:39.843Z,0.70
2019-02-11T03:15:10.923Z,0.60
2019-02-11T03:17:39.254Z,0.80
2019-02-11T03:20:09.514Z,0.60
2019-02-11T03:22:37.849Z,0.60
2019-02-11T03:25:07.795Z,0.60
2019-02-11T03:27:36.096Z,0.70
2019-02-11T03:30:08.324Z,0.60
2019-02-11T03:32:36.677Z,0.70
2019-02-11T03:35:06.038Z,0.70
2019-02-11T03:37:34.370Z,1.17
2019-02-11T03:40:02.881Z,0.60
2019-02-11T03:42:31.183Z,0.70
2019-02-11T03:44:59.559Z,0.60
2019-02-11T03:47:27.917Z,0.60
2019-02-11T03:49:56.213Z,0.60
2019-02-11T03:52:24.584Z,0.70
2019-02-11T03:54:53.077Z,0.60
2019-02-11T03:57:21.415Z,0.60
2019-02-11T03:59:49.744Z,0.70
2019-02-11T04:02:18.052Z,0.60
2019-02-11T04:04:46.377Z,0.68
2019-02-11T04:07:14.694Z,0.60
2019-02-11T04:09:43.028Z,0.70
2019-02-11T04:12:11.990Z,0.80
2019-02-11T04:14:40.342Z,0.73
2019-02-11T04:17:08.684Z,0.70
2019-02-11T04:19:36.992Z,0.63
2019-02-11T04:22:06.805Z,1.00
2019-02-11T04:24:35.215Z,0.60
2019-02-11T04:27:04.517Z,0.70
2019-02-11T04:29:32.820Z,2.10
2019-02-11T04:32:01.161Z,0.60
2019-02-11T04:34:29.470Z,0.70
2019-02-11T04:36:57.795Z,0.67
2019-02-11T04:39:26.171Z,0.90
2019-02-11T04:41:54.502Z,0.70
2019-02-11T04:44:22.818Z,0.70
2019-02-11T04:46:51.165Z,0.60
2019-02-11T04:49:19.501Z,0.60
2019-02-11T04:51:47.817Z,0.70
2019-02-11T04:54:16.147Z,1.77
2019-02-11T04:56:44.474Z,0.70
2019-02-11T04:59:12.796Z,0.80
2019-02-11T05:01:41.190Z,1.10
2019-02-11T05:04:09.671Z,1.27
2019-02-11T05:06:37.989Z,3.45
2019-02-11T05:09:06.462Z,1.30
2019-02-11T05:11:34.798Z,1.00
2019-02-11T05:14:03.136Z,2.20
2019-02-11T05:16:31.434Z,2.53
2019-02-11T05:18:59.797Z,1.60
2019-02-11T05:21:28.182Z,1.47
2019-02-11T05:23:56.532Z,1.20
2019-02-11T05:26:24.835Z,2.60
2019-02-11T05:28:53.187Z,1.60
2019-02-11T05:31:21.502Z,3.37
2019-02-11T05:33:49.828Z,2.37
2019-02-11T05:36:18.225Z,1.73
2019-02-11T05:38:46.544Z,2.10
2019-02-11T05:41:14.949Z,3.90
2019-02-11T05:43:43.286Z,3.17
2019-02-11T05:46:11.839Z,1.97
2019-02-11T05:48:40.456Z,2.03
2019-02-11T05:51:09.004Z,1.60
2019-02-11T05:53:37.372Z,1.90
2019-02-11T05:56:05.679Z,4.50
2019-02-11T05:58:34.028Z,4.57
2019-02-11T06:01:02.362Z,3.17
2019-02-11T06:03:30.688Z,7.13
2019-02-11T06:05:58.997Z,1.90
2019-02-11T06:08:27.471Z,2.40
2019-02-11T06:10:55.786Z,3.90
2019-02-11T06:13:24.126Z,3.30
2019-02-11T06:15:52.424Z,3.57
2019-02-11T06:18:21.750Z,4.15
2019-02-11T06:20:50.080Z,1.93
2019-02-11T06:23:18.446Z,4.93
2019-02-11T06:25:46.776Z,4.93
2019-02-11T06:28:15.109Z,1.60
2019-02-11T06:30:43.446Z,2.50
2019-02-11T06:33:11.781Z,3.83
2019-02-11T06:35:40.083Z,2.20
2019-02-11T06:38:08.882Z,5.70
2019-02-11T06:40:37.198Z,3.20
2019-02-11T06:43:05.528Z,4.67
2019-02-11T06:45:33.872Z,3.77
2019-02-11T06:48:02.288Z,3.63
2019-02-11T06:50:30.665Z,5.20
2019-02-11T06:52:58.996Z,7.27
2019-02-11T06:55:27.309Z,9.53
2019-02-11T06:57:55.633Z,5.70
2019-02-11T07:00:23.965Z,6.30
2019-02-11T07:02:52.275Z,6.57
2019-02-11T07:05:21.090Z,6.22
2019-02-11T07:07:49.509Z,6.00
2019-02-11T07:10:17.862Z,7.17
2019-02-11T07:12:46.197Z,8.13
2019-02-11T07:15:21.697Z,3.47
2019-02-11T07:17:45.277Z,6.10
2019-02-11T07:20:13.754Z,11.03
2019-02-11T07:22:42.112Z,9.87
2019-02-11T07:25:10.758Z,7.80
2019-02-11T07:27:40.066Z,7.83
2019-02-11T07:30:11.171Z,3.70
2019-02-11T07:32:39.564Z,8.15
2019-02-11T07:35:08.735Z,4.23
2019-02-11T07:37:37.021Z,7.70
2019-02-11T07:40:09.173Z,3.73
2019-02-11T07:42:40.238Z,3.87
2019-02-11T07:45:12.449Z,6.90
2019-02-11T07:47:40.793Z,6.93
2019-02-11T07:50:09.818Z,6.53
2019-02-11T07:52:38.144Z,6.60
2019-02-11T07:55:06.583Z,6.83
2019-02-11T07:57:34.927Z,6.90
2019-02-11T08:00:04.225Z,9.13
2019-02-11T08:02:32.547Z,9.10
2019-02-11T08:05:00.875Z,5.40
2019-02-11T08:07:29.183Z,6.30
2019-02-11T08:09:57.585Z,10.07
2019-02-11T08:12:25.943Z,6.30
2019-02-11T08:14:55.397Z,7.78
2019-02-11T08:17:23.719Z,8.77
2019-02-11T08:19:52.048Z,8.88
2019-02-11T08:22:20.359Z,7.90
2019-02-11T08:24:48.726Z,11.17
2019-02-11T08:27:17.063Z,6.97
2019-02-11T08:29:46.222Z,12.50
2019-02-11T08:32:14.693Z,8.53
2019-02-11T08:34:43.017Z,6.27
2019-02-11T08:37:11.365Z,14.33
2019-02-11T08:39:39.674Z,8.33
2019-02-11T08:42:08.409Z,7.43
2019-02-11T08:44:36.756Z,6.67
2019-02-11T08:47:05.061Z,8.43
2019-02-11T08:49:33.398Z,4.67
2019-02-11T08:52:01.837Z,5.27
2019-02-11T08:54:30.227Z,9.20
2019-02-11T08:56:58.627Z,4.77
2019-02-11T08:59:26.942Z,11.00
2019-02-11T09:01:55.272Z,3.37
2019-02-11T09:04:23.595Z,9.60
2019-02-11T09:06:51.958Z,6.27
2019-02-11T09:09:20.267Z,7.97
2019-02-11T09:11:48.612Z,8.47
2019-02-11T09:14:16.957Z,6.70
2019-02-11T09:16:45.290Z,3.30
2019-02-11T09:19:13.618Z,11.77
2019-02-11T09:21:41.980Z,5.28
2019-02-11T09:24:10.349Z,14.53
2019-02-11T09:26:38.703Z,3.10
2019-02-11T09:29:07.457Z,10.50
2019-02-11T09:31:35.855Z,3.70
2019-02-11T09:34:04.226Z,5.87
2019-02-11T09:36:32.572Z,5.65
2019-02-11T09:39:00.870Z,7.60
2019-02-11T09:41:29.210Z,4.13
2019-02-11T09:43:57.584Z,3.17
2019-02-11T09:46:25.922Z,5.13
2019-02-11T09:48:54.239Z,2.43
2019-02-11T09:51:24.616Z,4.50
2019-02-11T09:53:53.002Z,5.47
2019-02-11T09:56:21.341Z,6.50
2019-02-11T09:58:49.642Z,4.45
2019-02-11T10:01:18.115Z,5.67
2019-02-11T10:03:46.458Z,6.90
2019-02-11T10:06:14.798Z,6.37
2019-02-11T10:08:43.161Z,4.83
2019-02-11T10:11:11.481Z,5.27
2019-02-11T10:14:09.333Z,3.27
2019-02-11T10:16:37.676Z,6.17
2019-02-11T10:19:05.994Z,7.47
2019-02-11T10:21:34.360Z,3.17
2019-02-11T10:24:02.688Z,5.67
2019-02-11T10:26:31.013Z,15.10
2019-02-11T10:28:59.360Z,5.53
2019-02-11T10:31:27.684Z,2.73
2019-02-11T10:33:56.041Z,7.10
2019-02-11T10:36:24.348Z,7.05
2019-02-11T10:38:52.736Z,6.63
2019-02-11T10:41:21.125Z,4.00
2019-02-11T10:43:49.460Z,8.63
2019-02-11T10:46:21.031Z,3.60
2019-02-11T10:48:48.150Z,9.20
2019-02-11T10:51:16.480Z,4.80
2019-02-11T10:53:44.898Z,6.20
2019-02-11T10:56:13.217Z,7.33
2019-02-11T10:58:41.554Z,7.13
2019-02-11T11:01:09.946Z,4.50
2019-02-11T11:03:38.295Z,7.97
2019-02-11T11:06:07.157Z,9.23
2019-02-11T11:08:35.484Z,4.00
2019-02-11T11:11:03.906Z,7.13
2019-02-11T11:13:32.296Z,6.53
2019-02-11T11:16:00.600Z,10.20
2019-02-11T11:18:28.936Z,6.83
2019-02-11T11:20:57.266Z,5.53
2019-02-11T11:23:26.251Z,4.83
2019-02-11T11:25:54.807Z,15.07
2019-02-11T11:28:23.231Z,5.85
2019-02-11T11:30:51.536Z,3.12
2019-02-11T11:33:19.879Z,6.03
2019-02-11T11:35:48.261Z,8.10
2019-02-11T11:38:16.621Z,7.23
2019-02-11T11:40:44.967Z,4.07
2019-02-11T11:43:13.369Z,16.53
2019-02-11T11:45:41.984Z,10.03
2019-02-11T11:48:10.342Z,7.27
2019-02-11T11:50:38.661Z,7.07
2019-02-11T11:53:07.358Z,3.50
2019-02-11T11:55:35.722Z,5.00
2019-02-11T11:58:04.258Z,4.20
2019-02-11T12:00:34.218Z,5.87
2019-02-11T12:03:05.045Z,6.63
2019-02-11T12:05:33.083Z,16.00
2019-02-11T12:08:01.417Z,4.60
2019-02-11T12:10:30.011Z,5.73
2019-02-11T12:12:58.409Z,5.70
2019-02-11T12:15:27.174Z,7.97
2019-02-11T12:17:55.996Z,5.63
2019-02-11T12:20:24.361Z,4.80
2019-02-11T12:22:52.744Z,7.57
2019-02-11T12:25:21.191Z,4.13
2019-02-11T12:27:49.517Z,4.60
2019-02-11T12:30:22.346Z,3.73
2019-02-11T12:32:54.334Z,3.62
2019-02-11T12:35:21.099Z,10.03
2019-02-11T12:37:49.566Z,11.20
2019-02-11T12:40:18.006Z,4.17
2019-02-11T12:42:46.402Z,2.20
2019-02-11T12:45:19.034Z,5.50
2019-02-11T12:47:47.512Z,3.10
2019-02-11T12:50:17.487Z,2.10
2019-02-11T12:52:45.901Z,4.92
2019-02-11T12:55:15.475Z,8.10
2019-02-11T12:57:43.877Z,4.17
2019-02-11T13:00:16.785Z,6.60
2019-02-11T13:02:45.026Z,6.00
2019-02-11T13:05:14.050Z,3.27
2019-02-11T13:07:42.455Z,3.30
2019-02-11T13:10:13.285Z,6.83
2019-02-11T13:12:41.723Z,3.85
2019-02-11T13:15:11.214Z,4.20
2019-02-11T13:17:39.621Z,4.00
2019-02-11T13:20:11.977Z,2.72
2019-02-11T13:22:40.709Z,4.62
2019-02-11T13:25:11.995Z,7.43
2019-02-11T13:27:40.340Z,3.80
2019-02-11T13:30:13.860Z,6.50
2019-02-11T13:32:42.314Z,7.23
2019-02-11T13:35:10.949Z,4.87
2019-02-11T13:37:39.272Z,4.30
2019-02-11T13:40:09.206Z,1.87
2019-02-11T13:42:37.610Z,3.93
2019-02-11T13:45:10.313Z,1.97
2019-02-11T13:47:51.792Z,6.57
2019-02-11T13:50:11.982Z,2.77
2019-02-11T13:52:40.399Z,8.25
2019-02-11T13:55:10.412Z,5.75
2019-02-11T13:57:38.791Z,4.13
2019-02-11T14:00:12.484Z,5.30
2019-02-11T14:02:46.203Z,2.90
2019-02-11T14:05:14.627Z,3.00
2019-02-11T14:07:43.090Z,2.00
2019-02-11T14:10:11.656Z,3.13
2019-02-11T14:12:40.115Z,13.13
2019-02-11T14:15:08.825Z,3.67
2019-02-11T14:17:37.319Z,3.47
2019-02-11T14:20:08.655Z,8.13
2019-02-11T14:22:36.982Z,3.22
2019-02-11T14:25:06.458Z,4.65
2019-02-11T14:27:34.875Z,4.60
2019-02-11T14:30:05.545Z,2.27
2019-02-11T14:32:33.879Z,4.72
2019-02-11T14:35:03.231Z,6.07
2019-02-11T14:37:33.602Z,4.83
2019-02-11T14:40:02.042Z,4.08
2019-02-11T14:42:30.555Z,9.03
2019-02-11T14:44:58.893Z,3.83
2019-02-11T14:47:27.315Z,5.20
2019-02-11T14:49:55.644Z,5.40
2019-02-11T14:52:24.332Z,4.47
2019-02-11T14:54:52.635Z,4.67
2019-02-11T14:57:21.001Z,2.70
2019-02-11T14:59:49.309Z,4.17
2019-02-11T15:02:17.649Z,3.97
2019-02-11T15:04:45.992Z,6.70
2019-02-11T15:07:14.378Z,6.15
2019-02-11T15:09:42.714Z,8.00
2019-02-11T15:12:11.068Z,2.47
2019-02-11T15:14:39.381Z,2.80
2019-02-11T15:17:07.897Z,5.80
2019-02-11T15:19:36.213Z,3.60
2019-02-11T15:22:04.607Z,3.57
2019-02-11T15:24:32.935Z,4.10
2019-02-11T15:27:01.282Z,4.30
2019-02-11T15:29:29.765Z,5.53
2019-02-11T15:31:58.182Z,4.30
2019-02-11T15:34:26.557Z,7.90
2019-02-11T15:36:54.877Z,3.83
2019-02-11T15:39:23.235Z,3.30
2019-02-11T15:41:51.550Z,3.08
2019-02-11T15:44:19.875Z,7.03
2019-02-11T15:46:48.176Z,2.10
2019-02-11T15:49:16.558Z,4.72
2019-02-11T15:51:48.348Z,2.70
2019-02-11T15:54:16.702Z,4.83
2019-02-11T15:56:45.120Z,5.43
2019-02-11T15:59:13.491Z,4.60
2019-02-11T16:01:42.857Z,4.65
2019-02-11T16:04:12.227Z,2.37
2019-02-11T16:06:40.641Z,4.60
2019-02-11T16:09:09.150Z,5.27
2019-02-11T16:11:37.527Z,6.70
2019-02-11T16:14:05.949Z,8.87
2019-02-11T16:16:34.422Z,4.62
2019-02-11T16:19:02.782Z,3.12
2019-02-11T16:21:31.174Z,7.17
2019-02-11T16:23:59.548Z,5.80
2019-02-11T16:26:27.870Z,3.90
2019-02-11T16:28:56.319Z,10.20
2019-02-11T16:31:24.699Z,8.97
2019-02-11T16:33:53.037Z,10.37
2019-02-11T16:36:22.026Z,6.15
2019-02-11T16:38:50.481Z,3.70
2019-02-11T16:41:18.788Z,4.30
2019-02-11T16:43:47.106Z,9.48
2019-02-11T16:46:15.444Z,3.00
2019-02-11T16:48:43.873Z,5.97
2019-02-11T16:51:12.218Z,8.28
2019-02-11T16:53:40.562Z,6.00
2019-02-11T16:56:09.288Z,5.90
2019-02-11T16:58:37.738Z,5.50
2019-02-11T17:01:06.051Z,3.60
2019-02-11T17:03:34.348Z,8.00
2019-02-11T17:06:02.751Z,10.63
2019-02-11T17:08:31.296Z,3.87
2019-02-11T17:10:59.624Z,3.30
2019-02-11T17:13:28.003Z,2.47
2019-02-11T17:15:56.374Z,4.07
2019-02-11T17:18:24.713Z,5.57
2019-02-11T17:20:53.050Z,5.37
2019-02-11T17:23:21.360Z,5.12
2019-02-11T17:25:49.723Z,4.10
2019-02-11T17:28:18.047Z,3.03
2019-02-11T17:30:46.404Z,4.13
2019-02-11T17:33:14.764Z,4.90
2019-02-11T17:35:43.141Z,3.63
2019-02-11T17:38:11.868Z,4.67
2019-02-11T17:40:40.248Z,4.17
2019-02-11T17:43:08.551Z,5.30
2019-02-11T17:45:36.900Z,3.77
2019-02-11T17:48:05.307Z,7.47
2019-02-11T17:50:33.692Z,6.50
2019-02-11T17:53:06.607Z,11.00
2019-02-11T17:55:35.032Z,5.90
2019-02-11T17:58:03.674Z,4.40
2019-02-11T18:00:38.386Z,4.08
2019-02-11T18:03:06.758Z,5.13
2019-02-11T18:05:35.151Z,12.73
2019-02-11T18:08:03.595Z,6.15
2019-02-11T18:10:31.915Z,5.40
2019-02-11T18:13:00.321Z,7.40
2019-02-11T18:15:28.702Z,2.70
2019-02-11T18:17:57.133Z,7.60
2019-02-11T18:20:25.492Z,10.07
2019-02-11T18:22:53.860Z,13.30
2019-02-11T18:25:22.245Z,4.77
2019-02-11T18:27:50.587Z,2.80
2019-02-11T18:30:19.017Z,7.80
2019-02-11T18:32:47.528Z,8.93
2019-02-11T18:35:17.679Z,5.55
2019-02-11T18:37:46.121Z,5.30
2019-02-11T18:40:15.319Z,4.10
2019-02-11T18:42:43.763Z,5.75
2019-02-11T18:45:14.487Z,5.80
2019-02-11T18:47:42.920Z,4.13
2019-02-11T18:50:14.421Z,7.03
2019-02-11T18:52:43.000Z,7.80
2019-02-11T18:55:15.572Z,6.40
2019-02-11T18:57:43.924Z,7.03
2019-02-11T19:00:16.588Z,7.13
2019-02-11T19:02:44.997Z,8.30
2019-02-11T19:05:14.983Z,4.30
2019-02-11T19:07:43.526Z,6.20
2019-02-11T19:10:14.575Z,7.37
2019-02-11T19:12:42.961Z,3.58
2019-02-11T19:15:13.813Z,6.42
2019-02-11T19:17:42.263Z,10.40
2019-02-11T19:20:14.118Z,8.03
2019-02-11T19:22:42.615Z,7.70
2019-02-11T19:25:12.921Z,26.05
2019-02-11T19:30:39.642Z,7.60
2019-02-11T19:33:08.014Z,6.65
2019-02-11T19:35:36.480Z,11.43
2019-02-11T19:38:04.849Z,6.17
2019-02-11T19:40:33.252Z,8.67
2019-02-11T19:43:01.599Z,12.33
2019-02-11T19:45:29.956Z,16.03
2019-02-11T19:47:59.343Z,12.55
2019-02-11T19:50:27.681Z,8.60
2019-02-11T19:52:56.068Z,11.75
2019-02-11T19:55:24.433Z,15.57
2019-02-11T19:57:52.773Z,13.57
2019-02-11T20:00:22.412Z,8.48
2019-02-11T20:02:50.859Z,7.03
2019-02-11T20:05:19.326Z,8.10
2019-02-11T20:07:47.828Z,13.53
2019-02-11T20:10:19.404Z,11.07
2019-02-11T20:12:47.827Z,14.85
2019-02-11T20:15:18.437Z,12.03
2019-02-11T20:17:46.867Z,7.70
2019-02-11T20:20:17.540Z,5.93
2019-02-11T20:22:45.925Z,7.73
2019-02-11T20:25:15.018Z,12.30
2019-02-11T20:27:43.481Z,9.50
2019-02-11T20:30:16.340Z,11.60
2019-02-11T20:32:44.672Z,10.30
2019-02-11T20:35:13.677Z,8.03
2019-02-11T20:37:42.008Z,9.50
2019-02-11T20:40:15.140Z,10.43
2019-02-11T20:42:43.547Z,13.50
2019-02-11T20:45:15.357Z,6.47
2019-02-11T20:47:43.676Z,10.13
2019-02-11T20:50:12.909Z,9.97
2019-02-11T20:52:41.244Z,10.30
2019-02-11T20:55:11.495Z,7.37
2019-02-11T20:57:39.813Z,15.53
2019-02-11T21:00:13.805Z,11.87
2019-02-11T21:02:42.154Z,10.77
2019-02-11T21:05:10.886Z,12.97
2019-02-11T21:07:39.310Z,10.70
2019-02-11T21:10:11.005Z,14.73
2019-02-11T21:12:39.486Z,9.70
2019-02-11T21:15:11.303Z,8.20
2019-02-11T21:17:39.697Z,16.20
2019-02-11T21:20:17.413Z,17.03
2019-02-11T21:22:42.016Z,10.63
2019-02-11T21:25:10.826Z,11.10
2019-02-11T21:27:39.329Z,18.37
2019-02-11T21:30:11.010Z,12.30
2019-02-11T21:32:39.333Z,7.23
2019-02-11T21:35:10.280Z,14.15
2019-02-11T21:37:39.963Z,12.10
2019-02-11T21:40:08.660Z,16.90
2019-02-11T21:42:37.100Z,16.43
2019-02-11T21:45:10.086Z,11.05
2019-02-11T21:47:38.477Z,10.63
2019-02-11T21:50:09.322Z,8.10
2019-02-11T21:52:37.749Z,14.73
2019-02-11T21:55:09.438Z,23.33
2019-02-11T21:57:37.884Z,11.90
2019-02-11T22:00:10.283Z,11.37
2019-02-11T22:02:38.594Z,15.20
2019-02-11T22:05:07.561Z,12.55
2019-02-11T22:07:35.877Z,19.93
2019-02-11T22:10:08.202Z,12.20
2019-02-11T22:12:36.601Z,15.90
2019-02-11T22:15:06.080Z,17.77
2019-02-11T22:17:34.420Z,12.03
2019-02-11T22:20:02.787Z,21.40
2019-02-11T22:22:31.223Z,10.27
2019-02-11T22:25:00.282Z,12.28
2019-02-11T22:27:28.610Z,13.20
2019-02-11T22:29:57.006Z,15.67
2019-02-11T22:32:25.362Z,10.38
2019-02-11T22:34:53.714Z,13.80
2019-02-11T22:37:22.052Z,18.60
2019-02-11T22:39:50.413Z,13.70
2019-02-11T22:42:18.768Z,19.40
2019-02-11T22:44:47.121Z,14.67
2019-02-11T22:47:15.449Z,13.30
2019-02-11T22:49:43.819Z,8.37
2019-02-11T22:52:12.358Z,14.10
2019-02-11T22:54:40.677Z,12.57
2019-02-11T22:57:09.363Z,9.77
2019-02-11T22:59:37.705Z,13.40
2019-02-11T23:02:06.073Z,24.13
2019-02-11T23:04:34.402Z,15.93
2019-02-11T23:07:02.746Z,16.13
2019-02-11T23:09:31.098Z,8.57
2019-02-11T23:11:59.493Z,11.27
2019-02-11T23:14:27.837Z,18.27
2019-02-11T23:16:56.227Z,19.47
2019-02-11T23:19:24.569Z,15.93
2019-02-11T23:21:53.046Z,17.73
2019-02-11T23:24:21.451Z,10.57
2019-02-11T23:26:49.809Z,9.77
2019-02-11T23:29:18.179Z,12.13
2019-02-11T23:31:46.525Z,10.93
2019-02-11T23:34:14.865Z,13.13
2019-02-11T23:36:43.673Z,20.67
2019-02-11T23:39:14.132Z,11.37
2019-02-11T23:41:42.493Z,16.00
2019-02-11T23:44:11.126Z,9.03
2019-02-11T23:46:39.559Z,15.00
2019-02-11T23:49:07.978Z,12.40
2019-02-11T23:51:36.711Z,8.18
2019-02-11T23:54:05.022Z,8.63
2019-02-11T23:56:33.403Z,14.30
2019-02-11T23:59:01.799Z,13.07
